sensor_id;sensor_type;location;lat;lon;timestamp;temperature;humidity
29551;DHT22;16488;52.396;10.696;2023-05-20T00:00:49;12.50;99.00
29551;DHT22;16488;52.396;10.696;2023-05-20T00:03:15;12.50;99.00
29551;DHT22;16488;52.396;10.696;2023-05-20T00:05:41;12.50;99.30
29551;DHT22;16488;52.396;10.696;2023-05-20T00:08:07;12.40;99.30
29551;DHT22;16488;52.396;10.696;2023-05-20T00:10:36;12.40;99.50
29551;DHT22;16488;52.396;10.696;2023-05-20T00:13:02;12.40;99.60
29551;DHT22;16488;52.396;10.696;2023-05-20T00:15:28;12.30;99.90
29551;DHT22;16488;52.396;10.696;2023-05-20T00:17:55;12.20;99.90
29551;DHT22;16488;52.396;10.696;2023-05-20T00:20:20;12.30;99.90
29551;DHT22;16488;52.396;10.696;2023-05-20T00:22:46;12.20;99.90
29551;DHT22;16488;52.396;10.696;2023-05-20T00:25:12;12.20;99.90
29551;DHT22;16488;52.396;10.696;2023-05-20T00:27:39;12.20;99.90
29551;DHT22;16488;52.396;10.696;2023-05-20T00:30:06;12.10;99.90
29551;DHT22;16488;52.396;10.696;2023-05-20T00:32:32;12.10;99.90
29551;DHT22;16488;52.396;10.696;2023-05-20T00:34:59;12.00;99.90
29551;DHT22;16488;52.396;10.696;2023-05-20T00:37:25;12.10;99.90
29551;DHT22;16488;52.396;10.696;2023-05-20T00:39:51;12.10;99.90
29551;DHT22;16488;52.396;10.696;2023-05-20T00:42:24;12.10;99.90
29551;DHT22;16488;52.396;10.696;2023-05-20T00:44:50;12.00;99.90
29551;DHT22;16488;52.396;10.696;2023-05-20T00:47:17;12.00;99.90
29551;DHT22;16488;52.396;10.696;2023-05-20T00:49:48;12.00;99.90
29551;DHT22;16488;52.396;10.696;2023-05-20T00:52:15;12.00;99.90
29551;DHT22;16488;52.396;10.696;2023-05-20T00:54:41;11.90;99.90
29551;DHT22;16488;52.396;10.696;2023-05-20T00:57:08;11.90;99.90
29551;DHT22;16488;52.396;10.696;2023-05-20T00:59:37;11.90;99.90
29551;DHT22;16488;52.396;10.696;2023-05-20T01:02:03;11.90;99.90
29551;DHT22;16488;52.396;10.696;2023-05-20T01:04:30;11.80;99.90
29551;DHT22;16488;52.396;10.696;2023-05-20T01:07:01;11.80;99.90
29551;DHT22;16488;52.396;10.696;2023-05-20T01:09:29;11.80;99.90
29551;DHT22;16488;52.396;10.696;2023-05-20T01:14:32;11.70;99.90
29551;DHT22;16488;52.396;10.696;2023-05-20T01:17:01;11.70;99.90
29551;DHT22;16488;52.396;10.696;2023-05-20T01:19:53;11.70;99.90
29551;DHT22;16488;52.396;10.696;2023-05-20T01:22:26;11.70;99.90
29551;DHT22;16488;52.396;10.696;2023-05-20T01:24:52;11.60;99.90
29551;DHT22;16488;52.396;10.696;2023-05-20T01:27:19;11.60;99.90
29551;DHT22;16488;52.396;10.696;2023-05-20T01:29:45;11.60;99.90
29551;DHT22;16488;52.396;10.696;2023-05-20T01:32:22;11.60;99.90
29551;DHT22;16488;52.396;10.696;2023-05-20T01:34:50;11.60;99.90
29551;DHT22;16488;52.396;10.696;2023-05-20T01:37:18;11.60;99.90
29551;DHT22;16488;52.396;10.696;2023-05-20T01:39:44;11.60;99.90
29551;DHT22;16488;52.396;10.696;2023-05-20T01:42:11;11.60;99.90
29551;DHT22;16488;52.396;10.696;2023-05-20T01:44:38;11.60;99.90
29551;DHT22;16488;52.396;10.696;2023-05-20T01:47:04;11.70;99.90
29551;DHT22;16488;52.396;10.696;2023-05-20T01:49:30;11.70;99.90
29551;DHT22;16488;52.396;10.696;2023-05-20T01:51:56;11.80;99.90
29551;DHT22;16488;52.396;10.696;2023-05-20T01:54:22;11.80;99.90
29551;DHT22;16488;52.396;10.696;2023-05-20T01:56:48;11.80;99.90
29551;DHT22;16488;52.396;10.696;2023-05-20T01:59:14;11.80;99.90
29551;DHT22;16488;52.396;10.696;2023-05-20T02:01:40;11.80;99.90
29551;DHT22;16488;52.396;10.696;2023-05-20T02:04:05;11.80;99.90
29551;DHT22;16488;52.396;10.696;2023-05-20T02:06:31;11.70;99.90
29551;DHT22;16488;52.396;10.696;2023-05-20T02:08:57;11.70;99.90
29551;DHT22;16488;52.396;10.696;2023-05-20T02:11:22;11.70;99.90
29551;DHT22;16488;52.396;10.696;2023-05-20T02:13:49;11.70;99.90
29551;DHT22;16488;52.396;10.696;2023-05-20T02:16:15;11.70;99.90
29551;DHT22;16488;52.396;10.696;2023-05-20T02:18:40;11.70;99.90
29551;DHT22;16488;52.396;10.696;2023-05-20T02:21:07;11.70;99.90
29551;DHT22;16488;52.396;10.696;2023-05-20T02:23:33;11.70;99.90
29551;DHT22;16488;52.396;10.696;2023-05-20T02:25:58;11.60;99.90
29551;DHT22;16488;52.396;10.696;2023-05-20T02:28:24;11.60;99.90
29551;DHT22;16488;52.396;10.696;2023-05-20T02:30:50;11.70;99.90
29551;DHT22;16488;52.396;10.696;2023-05-20T02:33:16;11.70;99.90
29551;DHT22;16488;52.396;10.696;2023-05-20T02:35:42;11.60;99.90
29551;DHT22;16488;52.396;10.696;2023-05-20T02:38:07;11.60;99.90
29551;DHT22;16488;52.396;10.696;2023-05-20T02:40:33;11.50;99.90
29551;DHT22;16488;52.396;10.696;2023-05-20T02:42:59;11.50;99.90
29551;DHT22;16488;52.396;10.696;2023-05-20T02:45:25;11.50;99.90
29551;DHT22;16488;52.396;10.696;2023-05-20T02:47:51;11.40;99.90
29551;DHT22;16488;52.396;10.696;2023-05-20T02:50:17;11.40;99.90
29551;DHT22;16488;52.396;10.696;2023-05-20T02:52:43;11.20;99.90
29551;DHT22;16488;52.396;10.696;2023-05-20T02:55:10;11.20;99.90
29551;DHT22;16488;52.396;10.696;2023-05-20T02:57:36;11.20;99.90
29551;DHT22;16488;52.396;10.696;2023-05-20T03:00:08;11.20;99.90
29551;DHT22;16488;52.396;10.696;2023-05-20T03:02:38;11.10;99.90
29551;DHT22;16488;52.396;10.696;2023-05-20T03:05:04;11.00;99.90
29551;DHT22;16488;52.396;10.696;2023-05-20T03:07:32;11.00;99.90
29551;DHT22;16488;52.396;10.696;2023-05-20T03:09:58;11.00;99.90
29551;DHT22;16488;52.396;10.696;2023-05-20T03:12:24;10.90;99.90
29551;DHT22;16488;52.396;10.696;2023-05-20T03:14:50;10.90;99.90
29551;DHT22;16488;52.396;10.696;2023-05-20T03:17:22;10.90;99.90
29551;DHT22;16488;52.396;10.696;2023-05-20T03:19:48;10.80;99.90
29551;DHT22;16488;52.396;10.696;2023-05-20T03:22:13;10.80;99.90
29551;DHT22;16488;52.396;10.696;2023-05-20T03:24:39;10.80;99.90
29551;DHT22;16488;52.396;10.696;2023-05-20T03:27:05;10.70;99.90
29551;DHT22;16488;52.396;10.696;2023-05-20T03:29:31;10.70;99.90
29551;DHT22;16488;52.396;10.696;2023-05-20T03:31:58;10.60;99.90
29551;DHT22;16488;52.396;10.696;2023-05-20T03:34:23;10.60;99.90
29551;DHT22;16488;52.396;10.696;2023-05-20T03:36:50;10.60;99.90
29551;DHT22;16488;52.396;10.696;2023-05-20T03:39:16;10.60;99.90
29551;DHT22;16488;52.396;10.696;2023-05-20T03:41:41;10.50;99.90
29551;DHT22;16488;52.396;10.696;2023-05-20T03:44:07;10.50;99.90
29551;DHT22;16488;52.396;10.696;2023-05-20T03:46:32;10.50;99.90
29551;DHT22;16488;52.396;10.696;2023-05-20T03:48:59;10.40;99.90
29551;DHT22;16488;52.396;10.696;2023-05-20T03:51:26;10.50;99.90
29551;DHT22;16488;52.396;10.696;2023-05-20T03:53:52;10.50;99.90
29551;DHT22;16488;52.396;10.696;2023-05-20T03:56:18;10.50;99.90
29551;DHT22;16488;52.396;10.696;2023-05-20T03:58:43;10.60;99.90
29551;DHT22;16488;52.396;10.696;2023-05-20T04:01:09;10.50;99.90
29551;DHT22;16488;52.396;10.696;2023-05-20T04:03:37;10.60;99.90
29551;DHT22;16488;52.396;10.696;2023-05-20T04:06:03;10.60;99.90
29551;DHT22;16488;52.396;10.696;2023-05-20T04:08:29;10.50;99.90
29551;DHT22;16488;52.396;10.696;2023-05-20T04:10:55;10.50;99.90
29551;DHT22;16488;52.396;10.696;2023-05-20T04:13:21;10.50;99.90
29551;DHT22;16488;52.396;10.696;2023-05-20T04:15:50;10.60;99.90
29551;DHT22;16488;52.396;10.696;2023-05-20T04:18:17;10.60;99.90
29551;DHT22;16488;52.396;10.696;2023-05-20T04:20:42;10.60;99.90
29551;DHT22;16488;52.396;10.696;2023-05-20T04:23:11;10.70;99.90
29551;DHT22;16488;52.396;10.696;2023-05-20T04:25:37;10.70;99.90
29551;DHT22;16488;52.396;10.696;2023-05-20T04:28:03;10.70;99.90
29551;DHT22;16488;52.396;10.696;2023-05-20T04:30:29;10.70;99.90
29551;DHT22;16488;52.396;10.696;2023-05-20T04:32:57;10.80;99.90
29551;DHT22;16488;52.396;10.696;2023-05-20T04:35:23;10.80;99.90
29551;DHT22;16488;52.396;10.696;2023-05-20T04:37:50;10.80;99.90
29551;DHT22;16488;52.396;10.696;2023-05-20T04:40:18;10.80;99.90
29551;DHT22;16488;52.396;10.696;2023-05-20T04:42:43;10.80;99.90
29551;DHT22;16488;52.396;10.696;2023-05-20T04:45:10;10.80;99.90
29551;DHT22;16488;52.396;10.696;2023-05-20T04:47:37;10.90;99.90
29551;DHT22;16488;52.396;10.696;2023-05-20T04:50:06;10.90;99.90
29551;DHT22;16488;52.396;10.696;2023-05-20T04:52:35;11.00;99.90
29551;DHT22;16488;52.396;10.696;2023-05-20T04:55:02;11.00;99.90
29551;DHT22;16488;52.396;10.696;2023-05-20T04:57:28;10.90;99.90
29551;DHT22;16488;52.396;10.696;2023-05-20T04:59:54;10.90;99.90
29551;DHT22;16488;52.396;10.696;2023-05-20T05:02:23;11.00;99.90
29551;DHT22;16488;52.396;10.696;2023-05-20T05:04:49;11.00;99.90
29551;DHT22;16488;52.396;10.696;2023-05-20T05:07:14;11.00;99.90
29551;DHT22;16488;52.396;10.696;2023-05-20T05:09:40;11.10;99.90
29551;DHT22;16488;52.396;10.696;2023-05-20T05:12:06;11.00;99.90
29551;DHT22;16488;52.396;10.696;2023-05-20T05:14:31;11.10;99.90
29551;DHT22;16488;52.396;10.696;2023-05-20T05:16:57;11.20;99.90
29551;DHT22;16488;52.396;10.696;2023-05-20T05:19:23;11.30;99.90
29551;DHT22;16488;52.396;10.696;2023-05-20T05:21:49;11.30;99.90
29551;DHT22;16488;52.396;10.696;2023-05-20T05:24:15;11.30;99.90
29551;DHT22;16488;52.396;10.696;2023-05-20T05:26:41;11.30;99.90
29551;DHT22;16488;52.396;10.696;2023-05-20T05:29:06;11.30;99.90
29551;DHT22;16488;52.396;10.696;2023-05-20T05:31:32;11.30;99.90
29551;DHT22;16488;52.396;10.696;2023-05-20T05:33:57;11.40;99.90
29551;DHT22;16488;52.396;10.696;2023-05-20T05:36:23;11.40;99.90
29551;DHT22;16488;52.396;10.696;2023-05-20T05:38:50;11.30;99.90
29551;DHT22;16488;52.396;10.696;2023-05-20T05:41:16;11.40;99.90
29551;DHT22;16488;52.396;10.696;2023-05-20T05:43:41;11.40;99.90
29551;DHT22;16488;52.396;10.696;2023-05-20T05:46:07;11.50;99.90
29551;DHT22;16488;52.396;10.696;2023-05-20T05:48:35;11.40;99.90
29551;DHT22;16488;52.396;10.696;2023-05-20T05:51:01;11.50;99.90
29551;DHT22;16488;52.396;10.696;2023-05-20T05:53:26;11.60;99.90
29551;DHT22;16488;52.396;10.696;2023-05-20T05:55:52;11.70;99.90
29551;DHT22;16488;52.396;10.696;2023-05-20T05:58:18;11.70;99.90
29551;DHT22;16488;52.396;10.696;2023-05-20T06:00:44;11.80;99.90
29551;DHT22;16488;52.396;10.696;2023-05-20T06:03:10;11.90;99.90
29551;DHT22;16488;52.396;10.696;2023-05-20T06:05:36;11.90;99.90
29551;DHT22;16488;52.396;10.696;2023-05-20T06:08:01;12.00;99.90
29551;DHT22;16488;52.396;10.696;2023-05-20T06:10:27;12.00;99.90
29551;DHT22;16488;52.396;10.696;2023-05-20T06:12:53;12.20;99.90
29551;DHT22;16488;52.396;10.696;2023-05-20T06:15:18;12.30;99.90
29551;DHT22;16488;52.396;10.696;2023-05-20T06:17:44;12.40;99.90
29551;DHT22;16488;52.396;10.696;2023-05-20T06:20:10;12.40;99.90
29551;DHT22;16488;52.396;10.696;2023-05-20T06:22:36;12.50;99.90
29551;DHT22;16488;52.396;10.696;2023-05-20T06:25:01;12.50;99.90
29551;DHT22;16488;52.396;10.696;2023-05-20T06:27:27;12.60;99.90
29551;DHT22;16488;52.396;10.696;2023-05-20T06:29:53;12.60;99.90
29551;DHT22;16488;52.396;10.696;2023-05-20T06:32:18;12.70;99.90
29551;DHT22;16488;52.396;10.696;2023-05-20T06:34:44;12.80;99.90
29551;DHT22;16488;52.396;10.696;2023-05-20T06:37:10;12.90;99.90
29551;DHT22;16488;52.396;10.696;2023-05-20T06:39:36;13.00;99.90
29551;DHT22;16488;52.396;10.696;2023-05-20T06:42:01;13.10;99.90
29551;DHT22;16488;52.396;10.696;2023-05-20T06:44:27;13.20;99.90
29551;DHT22;16488;52.396;10.696;2023-05-20T06:46:53;13.20;99.90
29551;DHT22;16488;52.396;10.696;2023-05-20T06:49:18;13.30;99.90
29551;DHT22;16488;52.396;10.696;2023-05-20T06:51:44;13.40;99.90
29551;DHT22;16488;52.396;10.696;2023-05-20T06:54:10;13.40;99.90
29551;DHT22;16488;52.396;10.696;2023-05-20T06:56:35;13.40;99.90
29551;DHT22;16488;52.396;10.696;2023-05-20T06:59:01;13.40;99.90
29551;DHT22;16488;52.396;10.696;2023-05-20T07:01:26;13.50;99.90
29551;DHT22;16488;52.396;10.696;2023-05-20T07:03:52;13.50;99.90
29551;DHT22;16488;52.396;10.696;2023-05-20T07:06:17;13.50;99.90
29551;DHT22;16488;52.396;10.696;2023-05-20T07:08:43;13.50;99.90
29551;DHT22;16488;52.396;10.696;2023-05-20T07:11:09;13.60;99.90
29551;DHT22;16488;52.396;10.696;2023-05-20T07:13:34;13.70;99.90
29551;DHT22;16488;52.396;10.696;2023-05-20T07:16:00;13.80;99.90
29551;DHT22;16488;52.396;10.696;2023-05-20T07:18:26;13.90;99.90
29551;DHT22;16488;52.396;10.696;2023-05-20T07:20:52;14.00;99.90
29551;DHT22;16488;52.396;10.696;2023-05-20T07:23:18;14.20;99.90
29551;DHT22;16488;52.396;10.696;2023-05-20T07:25:44;14.30;99.90
29551;DHT22;16488;52.396;10.696;2023-05-20T07:28:09;14.30;99.90
29551;DHT22;16488;52.396;10.696;2023-05-20T07:30:35;14.30;99.90
29551;DHT22;16488;52.396;10.696;2023-05-20T07:33:00;14.40;99.90
29551;DHT22;16488;52.396;10.696;2023-05-20T07:35:26;14.30;99.90
29551;DHT22;16488;52.396;10.696;2023-05-20T07:37:51;14.30;99.90
29551;DHT22;16488;52.396;10.696;2023-05-20T07:40:17;14.20;99.90
29551;DHT22;16488;52.396;10.696;2023-05-20T07:42:43;14.20;99.90
29551;DHT22;16488;52.396;10.696;2023-05-20T07:45:09;14.10;99.90
29551;DHT22;16488;52.396;10.696;2023-05-20T07:47:35;14.10;99.90
29551;DHT22;16488;52.396;10.696;2023-05-20T07:50:00;14.10;99.90
29551;DHT22;16488;52.396;10.696;2023-05-20T07:52:26;14.10;99.90
29551;DHT22;16488;52.396;10.696;2023-05-20T07:54:51;14.10;99.90
29551;DHT22;16488;52.396;10.696;2023-05-20T07:57:17;14.10;99.90
29551;DHT22;16488;52.396;10.696;2023-05-20T07:59:42;14.10;99.90
29551;DHT22;16488;52.396;10.696;2023-05-20T08:02:09;14.20;99.90
29551;DHT22;16488;52.396;10.696;2023-05-20T08:04:35;14.20;99.90
29551;DHT22;16488;52.396;10.696;2023-05-20T08:07:01;14.20;99.90
29551;DHT22;16488;52.396;10.696;2023-05-20T08:09:26;14.20;99.90
29551;DHT22;16488;52.396;10.696;2023-05-20T08:11:52;14.10;99.90
29551;DHT22;16488;52.396;10.696;2023-05-20T08:14:17;14.20;99.90
29551;DHT22;16488;52.396;10.696;2023-05-20T08:16:43;14.30;99.90
29551;DHT22;16488;52.396;10.696;2023-05-20T08:19:09;14.40;99.90
29551;DHT22;16488;52.396;10.696;2023-05-20T08:21:34;14.40;99.90
29551;DHT22;16488;52.396;10.696;2023-05-20T08:24:00;14.40;99.90
29551;DHT22;16488;52.396;10.696;2023-05-20T08:26:26;14.50;99.90
29551;DHT22;16488;52.396;10.696;2023-05-20T08:28:51;14.60;99.90
29551;DHT22;16488;52.396;10.696;2023-05-20T08:31:17;14.70;99.90
29551;DHT22;16488;52.396;10.696;2023-05-20T08:33:43;14.80;99.90
29551;DHT22;16488;52.396;10.696;2023-05-20T08:36:09;14.80;99.90
29551;DHT22;16488;52.396;10.696;2023-05-20T08:38:35;14.90;99.90
29551;DHT22;16488;52.396;10.696;2023-05-20T08:41:01;14.90;99.90
29551;DHT22;16488;52.396;10.696;2023-05-20T08:43:27;15.10;99.90
29551;DHT22;16488;52.396;10.696;2023-05-20T08:45:55;15.20;99.90
29551;DHT22;16488;52.396;10.696;2023-05-20T08:48:22;15.10;99.90
29551;DHT22;16488;52.396;10.696;2023-05-20T08:50:51;15.10;99.90
29551;DHT22;16488;52.396;10.696;2023-05-20T08:53:19;15.00;99.90
29551;DHT22;16488;52.396;10.696;2023-05-20T08:55:52;15.10;99.90
29551;DHT22;16488;52.396;10.696;2023-05-20T08:58:20;15.00;99.90
29551;DHT22;16488;52.396;10.696;2023-05-20T09:00:46;15.10;99.90
29551;DHT22;16488;52.396;10.696;2023-05-20T09:03:12;15.10;99.90
29551;DHT22;16488;52.396;10.696;2023-05-20T09:05:37;15.10;99.90
29551;DHT22;16488;52.396;10.696;2023-05-20T09:08:10;15.10;99.90
29551;DHT22;16488;52.396;10.696;2023-05-20T09:10:37;15.10;99.90
29551;DHT22;16488;52.396;10.696;2023-05-20T09:13:04;15.10;99.90
29551;DHT22;16488;52.396;10.696;2023-05-20T09:15:31;15.20;99.90
29551;DHT22;16488;52.396;10.696;2023-05-20T09:18:01;15.30;99.90
29551;DHT22;16488;52.396;10.696;2023-05-20T09:20:27;15.10;99.90
29551;DHT22;16488;52.396;10.696;2023-05-20T09:23:01;15.20;99.90
29551;DHT22;16488;52.396;10.696;2023-05-20T09:25:27;15.40;99.90
29551;DHT22;16488;52.396;10.696;2023-05-20T09:27:57;15.40;99.90
29551;DHT22;16488;52.396;10.696;2023-05-20T09:30:23;15.40;99.90
29551;DHT22;16488;52.396;10.696;2023-05-20T09:35:20;15.30;99.90
29551;DHT22;16488;52.396;10.696;2023-05-20T09:37:46;15.30;99.90
29551;DHT22;16488;52.396;10.696;2023-05-20T09:40:14;15.30;99.90
29551;DHT22;16488;52.396;10.696;2023-05-20T09:43:05;15.20;99.90
29551;DHT22;16488;52.396;10.696;2023-05-20T09:45:36;15.40;99.90
29551;DHT22;16488;52.396;10.696;2023-05-20T09:48:03;15.40;99.90
29551;DHT22;16488;52.396;10.696;2023-05-20T09:50:33;15.30;99.90
29551;DHT22;16488;52.396;10.696;2023-05-20T09:53:02;15.30;99.90
29551;DHT22;16488;52.396;10.696;2023-05-20T09:55:29;15.30;99.90
29551;DHT22;16488;52.396;10.696;2023-05-20T09:57:57;15.40;99.90
29551;DHT22;16488;52.396;10.696;2023-05-20T10:00:23;15.50;99.90
29551;DHT22;16488;52.396;10.696;2023-05-20T10:02:52;15.40;99.90
29551;DHT22;16488;52.396;10.696;2023-05-20T10:08:10;15.30;99.90
29551;DHT22;16488;52.396;10.696;2023-05-20T10:18:43;15.10;99.90
29551;DHT22;16488;52.396;10.696;2023-05-20T10:21:21;15.20;99.90
29551;DHT22;16488;52.396;10.696;2023-05-20T10:23:51;15.20;99.90
29551;DHT22;16488;52.396;10.696;2023-05-20T10:26:17;15.20;99.90
29551;DHT22;16488;52.396;10.696;2023-05-20T10:28:43;15.30;99.90
29551;DHT22;16488;52.396;10.696;2023-05-20T10:31:19;15.30;99.90
29551;DHT22;16488;52.396;10.696;2023-05-20T10:33:45;15.20;99.90
29551;DHT22;16488;52.396;10.696;2023-05-20T10:36:28;15.30;99.90
29551;DHT22;16488;52.396;10.696;2023-05-20T10:38:57;15.40;99.90
29551;DHT22;16488;52.396;10.696;2023-05-20T10:41:24;15.30;99.90
29551;DHT22;16488;52.396;10.696;2023-05-20T10:46:26;15.40;99.90
29551;DHT22;16488;52.396;10.696;2023-05-20T10:48:52;15.50;99.90
29551;DHT22;16488;52.396;10.696;2023-05-20T10:51:19;15.40;99.90
29551;DHT22;16488;52.396;10.696;2023-05-20T10:53:45;15.30;99.90
29551;DHT22;16488;52.396;10.696;2023-05-20T10:56:22;15.30;99.90
29551;DHT22;16488;52.396;10.696;2023-05-20T10:58:49;15.30;99.90
29551;DHT22;16488;52.396;10.696;2023-05-20T11:01:16;15.20;99.90
29551;DHT22;16488;52.396;10.696;2023-05-20T11:03:44;15.20;99.90
29551;DHT22;16488;52.396;10.696;2023-05-20T11:06:14;15.20;99.90
29551;DHT22;16488;52.396;10.696;2023-05-20T11:08:39;15.40;99.90
29551;DHT22;16488;52.396;10.696;2023-05-20T11:11:06;15.50;99.90
29551;DHT22;16488;52.396;10.696;2023-05-20T11:13:31;15.50;99.90
29551;DHT22;16488;52.396;10.696;2023-05-20T11:15:57;15.60;99.90
29551;DHT22;16488;52.396;10.696;2023-05-20T11:18:26;15.60;99.90
29551;DHT22;16488;52.396;10.696;2023-05-20T11:20:58;15.60;99.90
29551;DHT22;16488;52.396;10.696;2023-05-20T11:23:25;15.70;99.90
29551;DHT22;16488;52.396;10.696;2023-05-20T11:25:53;15.80;99.90
29551;DHT22;16488;52.396;10.696;2023-05-20T11:28:19;15.90;99.90
29551;DHT22;16488;52.396;10.696;2023-05-20T11:30:50;15.90;99.90
29551;DHT22;16488;52.396;10.696;2023-05-20T11:33:16;15.90;99.90
29551;DHT22;16488;52.396;10.696;2023-05-20T11:35:50;15.80;99.90
29551;DHT22;16488;52.396;10.696;2023-05-20T11:38:18;15.90;99.90
29551;DHT22;16488;52.396;10.696;2023-05-20T11:40:45;15.80;99.90
29551;DHT22;16488;52.396;10.696;2023-05-20T11:43:12;15.60;99.90
29551;DHT22;16488;52.396;10.696;2023-05-20T11:45:45;15.60;99.90
29551;DHT22;16488;52.396;10.696;2023-05-20T11:48:12;15.60;99.90
29551;DHT22;16488;52.396;10.696;2023-05-20T11:50:42;15.60;99.90
29551;DHT22;16488;52.396;10.696;2023-05-20T11:53:09;15.70;99.90
29551;DHT22;16488;52.396;10.696;2023-05-20T11:56:04;15.60;99.90
29551;DHT22;16488;52.396;10.696;2023-05-20T11:58:31;15.50;99.90
29551;DHT22;16488;52.396;10.696;2023-05-20T12:00:57;15.60;99.90
29551;DHT22;16488;52.396;10.696;2023-05-20T12:03:23;15.60;99.90
29551;DHT22;16488;52.396;10.696;2023-05-20T12:05:49;15.60;99.90
29551;DHT22;16488;52.396;10.696;2023-05-20T12:08:16;15.60;99.90
29551;DHT22;16488;52.396;10.696;2023-05-20T12:10:41;15.70;99.90
29551;DHT22;16488;52.396;10.696;2023-05-20T12:13:09;15.70;99.90
29551;DHT22;16488;52.396;10.696;2023-05-20T12:15:38;15.80;99.90
29551;DHT22;16488;52.396;10.696;2023-05-20T12:18:04;15.80;99.90
29551;DHT22;16488;52.396;10.696;2023-05-20T12:20:30;15.60;99.90
29551;DHT22;16488;52.396;10.696;2023-05-20T12:22:58;15.70;99.90
29551;DHT22;16488;52.396;10.696;2023-05-20T12:25:24;15.60;99.90
29551;DHT22;16488;52.396;10.696;2023-05-20T12:27:50;15.70;99.90
29551;DHT22;16488;52.396;10.696;2023-05-20T12:30:18;15.70;99.90
29551;DHT22;16488;52.396;10.696;2023-05-20T12:32:44;15.80;99.90
29551;DHT22;16488;52.396;10.696;2023-05-20T12:35:11;15.80;99.90
29551;DHT22;16488;52.396;10.696;2023-05-20T12:37:37;15.80;99.90
29551;DHT22;16488;52.396;10.696;2023-05-20T12:40:04;15.90;99.90
29551;DHT22;16488;52.396;10.696;2023-05-20T12:42:36;15.90;99.90
29551;DHT22;16488;52.396;10.696;2023-05-20T12:45:03;15.90;99.90
29551;DHT22;16488;52.396;10.696;2023-05-20T12:47:29;15.90;99.90
29551;DHT22;16488;52.396;10.696;2023-05-20T12:49:55;16.00;99.90
29551;DHT22;16488;52.396;10.696;2023-05-20T12:52:21;16.00;99.90
29551;DHT22;16488;52.396;10.696;2023-05-20T12:54:46;16.10;99.90
29551;DHT22;16488;52.396;10.696;2023-05-20T12:57:12;16.10;99.90
29551;DHT22;16488;52.396;10.696;2023-05-20T12:59:38;16.10;99.90
29551;DHT22;16488;52.396;10.696;2023-05-20T13:02:04;16.10;99.90
29551;DHT22;16488;52.396;10.696;2023-05-20T13:04:29;16.20;99.90
29551;DHT22;16488;52.396;10.696;2023-05-20T13:06:56;16.20;99.90
29551;DHT22;16488;52.396;10.696;2023-05-20T13:09:22;16.30;99.90
29551;DHT22;16488;52.396;10.696;2023-05-20T13:11:48;16.30;99.90
29551;DHT22;16488;52.396;10.696;2023-05-20T13:14:13;16.30;99.90
29551;DHT22;16488;52.396;10.696;2023-05-20T13:16:39;16.40;99.90
29551;DHT22;16488;52.396;10.696;2023-05-20T13:19:05;16.50;99.90
29551;DHT22;16488;52.396;10.696;2023-05-20T13:21:30;16.50;99.90
29551;DHT22;16488;52.396;10.696;2023-05-20T13:23:56;16.50;99.90
29551;DHT22;16488;52.396;10.696;2023-05-20T13:26:22;16.50;99.90
29551;DHT22;16488;52.396;10.696;2023-05-20T13:28:48;16.70;99.90
29551;DHT22;16488;52.396;10.696;2023-05-20T13:31:14;16.90;99.90
29551;DHT22;16488;52.396;10.696;2023-05-20T13:33:39;17.10;99.90
29551;DHT22;16488;52.396;10.696;2023-05-20T13:36:05;17.20;99.90
29551;DHT22;16488;52.396;10.696;2023-05-20T13:38:31;17.10;99.90
29551;DHT22;16488;52.396;10.696;2023-05-20T13:40:56;17.00;99.90
29551;DHT22;16488;52.396;10.696;2023-05-20T13:43:24;16.90;99.90
29551;DHT22;16488;52.396;10.696;2023-05-20T13:45:51;16.80;99.90
29551;DHT22;16488;52.396;10.696;2023-05-20T13:48:17;16.70;99.90
29551;DHT22;16488;52.396;10.696;2023-05-20T13:50:42;16.80;99.90
29551;DHT22;16488;52.396;10.696;2023-05-20T13:53:08;17.00;99.90
29551;DHT22;16488;52.396;10.696;2023-05-20T13:55:39;17.00;99.90
29551;DHT22;16488;52.396;10.696;2023-05-20T13:58:05;17.00;99.90
29551;DHT22;16488;52.396;10.696;2023-05-20T14:00:34;17.10;99.90
29551;DHT22;16488;52.396;10.696;2023-05-20T14:03:00;17.30;99.90
29551;DHT22;16488;52.396;10.696;2023-05-20T14:05:31;17.40;99.90
29551;DHT22;16488;52.396;10.696;2023-05-20T14:07:57;17.40;99.90
29551;DHT22;16488;52.396;10.696;2023-05-20T14:10:23;17.50;99.90
29551;DHT22;16488;52.396;10.696;2023-05-20T14:12:50;17.40;99.90
29551;DHT22;16488;52.396;10.696;2023-05-20T14:17:46;17.10;99.90
29551;DHT22;16488;52.396;10.696;2023-05-20T14:20:12;17.10;99.90
29551;DHT22;16488;52.396;10.696;2023-05-20T14:22:37;17.20;99.90
29551;DHT22;16488;52.396;10.696;2023-05-20T14:25:03;17.30;99.90
29551;DHT22;16488;52.396;10.696;2023-05-20T14:27:29;17.50;99.90
29551;DHT22;16488;52.396;10.696;2023-05-20T14:29:55;17.60;99.90
29551;DHT22;16488;52.396;10.696;2023-05-20T14:32:21;17.70;99.90
29551;DHT22;16488;52.396;10.696;2023-05-20T14:34:47;17.80;99.90
29551;DHT22;16488;52.396;10.696;2023-05-20T14:37:13;17.90;99.90
29551;DHT22;16488;52.396;10.696;2023-05-20T14:39:39;18.10;99.90
29551;DHT22;16488;52.396;10.696;2023-05-20T14:42:06;18.20;99.90
29551;DHT22;16488;52.396;10.696;2023-05-20T14:44:32;18.00;99.90
29551;DHT22;16488;52.396;10.696;2023-05-20T14:46:58;17.90;99.90
29551;DHT22;16488;52.396;10.696;2023-05-20T14:49:23;17.70;99.90
29551;DHT22;16488;52.396;10.696;2023-05-20T14:51:49;17.80;99.90
29551;DHT22;16488;52.396;10.696;2023-05-20T14:54:15;18.10;99.90
29551;DHT22;16488;52.396;10.696;2023-05-20T14:56:43;18.10;99.90
29551;DHT22;16488;52.396;10.696;2023-05-20T14:59:09;18.30;99.90
29551;DHT22;16488;52.396;10.696;2023-05-20T15:01:35;18.60;99.90
29551;DHT22;16488;52.396;10.696;2023-05-20T15:04:01;18.60;99.80
29551;DHT22;16488;52.396;10.696;2023-05-20T15:06:27;18.70;99.90
29551;DHT22;16488;52.396;10.696;2023-05-20T15:08:52;18.50;99.80
29551;DHT22;16488;52.396;10.696;2023-05-20T15:11:18;18.40;99.90
29551;DHT22;16488;52.396;10.696;2023-05-20T15:13:44;18.20;99.90
29551;DHT22;16488;52.396;10.696;2023-05-20T15:16:11;18.20;99.90
29551;DHT22;16488;52.396;10.696;2023-05-20T15:18:37;18.40;99.90
29551;DHT22;16488;52.396;10.696;2023-05-20T15:21:03;18.50;99.90
29551;DHT22;16488;52.396;10.696;2023-05-20T15:23:28;18.60;99.90
29551;DHT22;16488;52.396;10.696;2023-05-20T15:25:54;18.60;99.90
29551;DHT22;16488;52.396;10.696;2023-05-20T15:28:22;18.70;99.80
29551;DHT22;16488;52.396;10.696;2023-05-20T15:30:55;18.80;99.40
29551;DHT22;16488;52.396;10.696;2023-05-20T15:33:21;19.00;99.70